sensor_id;sensor_type;location;lat;lon;timestamp;P1;durP1;ratioP1;P2;durP2;ratioP2
6775;SDS011;3425;51.376;5.222;2023-11-22T00:02:17;10.15;;;9.65;;
6775;SDS011;3425;51.376;5.222;2023-11-22T00:04:45;10.65;;;10.02;;
6775;SDS011;3425;51.376;5.222;2023-11-22T00:07:12;10.85;;;10.30;;
6775;SDS011;3425;51.376;5.222;2023-11-22T00:09:40;10.93;;;10.32;;
6775;SDS011;3425;51.376;5.222;2023-11-22T00:12:08;11.93;;;11.07;;
6775;SDS011;3425;51.376;5.222;2023-11-22T00:14:36;11.57;;;10.82;;
6775;SDS011;3425;51.376;5.222;2023-11-22T00:17:03;16.42;;;10.98;;
6775;SDS011;3425;51.376;5.222;2023-11-22T00:19:31;11.10;;;10.32;;
6775;SDS011;3425;51.376;5.222;2023-11-22T00:21:58;11.60;;;10.98;;
6775;SDS011;3425;51.376;5.222;2023-11-22T00:24:26;11.25;;;10.55;;
6775;SDS011;3425;51.376;5.222;2023-11-22T00:26:53;10.52;;;10.02;;
6775;SDS011;3425;51.376;5.222;2023-11-22T00:29:20;11.18;;;10.60;;
6775;SDS011;3425;51.376;5.222;2023-11-22T00:31:47;11.43;;;10.68;;
6775;SDS011;3425;51.376;5.222;2023-11-22T00:34:15;11.25;;;10.55;;
6775;SDS011;3425;51.376;5.222;2023-11-22T00:36:46;10.40;;;9.90;;
6775;SDS011;3425;51.376;5.222;2023-11-22T00:39:15;10.63;;;10.13;;
6775;SDS011;3425;51.376;5.222;2023-11-22T00:41:43;10.48;;;9.93;;
6775;SDS011;3425;51.376;5.222;2023-11-22T00:44:13;10.98;;;10.38;;
6775;SDS011;3425;51.376;5.222;2023-11-22T00:46:40;10.43;;;9.93;;
6775;SDS011;3425;51.376;5.222;2023-11-22T00:49:08;10.88;;;10.27;;
6775;SDS011;3425;51.376;5.222;2023-11-22T00:51:35;10.25;;;9.70;;
6775;SDS011;3425;51.376;5.222;2023-11-22T00:54:04;11.77;;;10.70;;
6775;SDS011;3425;51.376;5.222;2023-11-22T00:56:31;11.00;;;10.43;;
6775;SDS011;3425;51.376;5.222;2023-11-22T00:58:58;10.60;;;10.10;;
6775;SDS011;3425;51.376;5.222;2023-11-22T01:01:28;11.00;;;10.07;;
6775;SDS011;3425;51.376;5.222;2023-11-22T01:03:56;11.20;;;10.55;;
6775;SDS011;3425;51.376;5.222;2023-11-22T01:06:24;12.15;;;11.20;;
6775;SDS011;3425;51.376;5.222;2023-11-22T01:08:51;10.95;;;10.18;;
6775;SDS011;3425;51.376;5.222;2023-11-22T01:11:18;10.48;;;9.98;;
6775;SDS011;3425;51.376;5.222;2023-11-22T01:13:45;11.30;;;10.50;;
6775;SDS011;3425;51.376;5.222;2023-11-22T01:16:12;10.75;;;10.25;;
6775;SDS011;3425;51.376;5.222;2023-11-22T01:18:40;13.50;;;10.68;;
6775;SDS011;3425;51.376;5.222;2023-11-22T01:21:11;11.10;;;10.50;;
6775;SDS011;3425;51.376;5.222;2023-11-22T01:23:39;11.02;;;10.43;;
6775;SDS011;3425;51.376;5.222;2023-11-22T01:26:06;10.23;;;9.65;;
6775;SDS011;3425;51.376;5.222;2023-11-22T01:28:33;10.45;;;9.85;;
6775;SDS011;3425;51.376;5.222;2023-11-22T01:31:01;10.02;;;9.52;;
6775;SDS011;3425;51.376;5.222;2023-11-22T01:33:28;10.02;;;9.52;;
6775;SDS011;3425;51.376;5.222;2023-11-22T01:35:55;10.82;;;10.25;;
6775;SDS011;3425;51.376;5.222;2023-11-22T01:38:23;10.68;;;10.07;;
6775;SDS011;3425;51.376;5.222;2023-11-22T01:40:51;9.57;;;9.15;;
6775;SDS011;3425;51.376;5.222;2023-11-22T01:43:18;10.70;;;10.15;;
6775;SDS011;3425;51.376;5.222;2023-11-22T01:45:46;10.50;;;9.90;;
6775;SDS011;3425;51.376;5.222;2023-11-22T01:48:13;9.93;;;9.43;;
6775;SDS011;3425;51.376;5.222;2023-11-22T01:50:44;11.48;;;10.77;;
6775;SDS011;3425;51.376;5.222;2023-11-22T01:53:12;10.57;;;9.98;;
6775;SDS011;3425;51.376;5.222;2023-11-22T01:55:40;10.13;;;9.63;;
6775;SDS011;3425;51.376;5.222;2023-11-22T01:58:08;10.43;;;9.93;;
6775;SDS011;3425;51.376;5.222;2023-11-22T02:00:36;11.05;;;10.45;;
6775;SDS011;3425;51.376;5.222;2023-11-22T02:03:05;9.73;;;9.27;;
6775;SDS011;3425;51.376;5.222;2023-11-22T02:05:32;10.65;;;9.75;;
6775;SDS011;3425;51.376;5.222;2023-11-22T02:07:59;10.93;;;9.93;;
6775;SDS011;3425;51.376;5.222;2023-11-22T02:10:27;11.13;;;10.32;;
6775;SDS011;3425;51.376;5.222;2023-11-22T02:12:55;10.75;;;9.93;;
6775;SDS011;3425;51.376;5.222;2023-11-22T02:15:22;10.52;;;10.00;;
6775;SDS011;3425;51.376;5.222;2023-11-22T02:17:50;10.18;;;9.68;;
6775;SDS011;3425;51.376;5.222;2023-11-22T02:20:22;9.90;;;9.32;;
6775;SDS011;3425;51.376;5.222;2023-11-22T02:22:49;9.93;;;9.40;;
6775;SDS011;3425;51.376;5.222;2023-11-22T02:25:17;10.00;;;9.50;;
6775;SDS011;3425;51.376;5.222;2023-11-22T02:27:45;9.88;;;9.40;;
6775;SDS011;3425;51.376;5.222;2023-11-22T02:30:12;10.50;;;9.65;;
6775;SDS011;3425;51.376;5.222;2023-11-22T02:32:39;9.63;;;9.13;;
6775;SDS011;3425;51.376;5.222;2023-11-22T02:35:06;10.55;;;9.85;;
6775;SDS011;3425;51.376;5.222;2023-11-22T02:37:34;10.15;;;9.65;;
6775;SDS011;3425;51.376;5.222;2023-11-22T02:40:05;9.85;;;9.35;;
6775;SDS011;3425;51.376;5.222;2023-11-22T02:42:34;10.43;;;9.93;;
6775;SDS011;3425;51.376;5.222;2023-11-22T02:45:01;10.20;;;9.48;;
6775;SDS011;3425;51.376;5.222;2023-11-22T02:47:28;9.90;;;9.40;;
6775;SDS011;3425;51.376;5.222;2023-11-22T02:49:57;10.05;;;9.55;;
6775;SDS011;3425;51.376;5.222;2023-11-22T02:52:24;11.52;;;10.85;;
6775;SDS011;3425;51.376;5.222;2023-11-22T02:54:51;11.05;;;10.45;;
6775;SDS011;3425;51.376;5.222;2023-11-22T02:57:19;10.63;;;10.02;;
6775;SDS011;3425;51.376;5.222;2023-11-22T02:59:46;9.95;;;9.45;;
6775;SDS011;3425;51.376;5.222;2023-11-22T03:02:13;12.73;;;10.18;;
6775;SDS011;3425;51.376;5.222;2023-11-22T03:04:43;9.95;;;9.48;;
6775;SDS011;3425;51.376;5.222;2023-11-22T03:07:10;10.38;;;9.68;;
6775;SDS011;3425;51.376;5.222;2023-11-22T03:09:37;10.93;;;10.23;;
6775;SDS011;3425;51.376;5.222;2023-11-22T03:12:07;10.40;;;9.80;;
6775;SDS011;3425;51.376;5.222;2023-11-22T03:14:35;9.35;;;8.95;;
6775;SDS011;3425;51.376;5.222;2023-11-22T03:17:02;10.20;;;9.70;;
6775;SDS011;3425;51.376;5.222;2023-11-22T03:19:32;10.73;;;10.23;;
6775;SDS011;3425;51.376;5.222;2023-11-22T03:22:02;10.68;;;10.18;;
6775;SDS011;3425;51.376;5.222;2023-11-22T03:24:29;10.52;;;10.02;;
6775;SDS011;3425;51.376;5.222;2023-11-22T03:26:56;10.20;;;9.70;;
6775;SDS011;3425;51.376;5.222;2023-11-22T03:29:25;10.25;;;9.75;;
6775;SDS011;3425;51.376;5.222;2023-11-22T03:31:52;10.82;;;10.13;;
6775;SDS011;3425;51.376;5.222;2023-11-22T03:34:20;10.35;;;9.85;;
6775;SDS011;3425;51.376;5.222;2023-11-22T03:36:47;10.15;;;9.65;;
6775;SDS011;3425;51.376;5.222;2023-11-22T03:39:15;9.65;;;9.25;;
6775;SDS011;3425;51.376;5.222;2023-11-22T03:41:42;10.30;;;9.80;;
6775;SDS011;3425;51.376;5.222;2023-11-22T03:44:10;10.82;;;10.27;;
6775;SDS011;3425;51.376;5.222;2023-11-22T03:46:37;10.43;;;9.90;;
6775;SDS011;3425;51.376;5.222;2023-11-22T03:49:05;10.43;;;9.93;;
6775;SDS011;3425;51.376;5.222;2023-11-22T03:51:36;10.18;;;9.68;;
6775;SDS011;3425;51.376;5.222;2023-11-22T03:54:03;10.20;;;9.70;;
6775;SDS011;3425;51.376;5.222;2023-11-22T03:56:30;10.13;;;9.63;;
6775;SDS011;3425;51.376;5.222;2023-11-22T03:58:57;9.98;;;9.48;;
6775;SDS011;3425;51.376;5.222;2023-11-22T04:01:25;10.57;;;10.05;;
6775;SDS011;3425;51.376;5.222;2023-11-22T04:03:52;10.57;;;10.02;;
6775;SDS011;3425;51.376;5.222;2023-11-22T04:06:20;10.20;;;9.70;;
6775;SDS011;3425;51.376;5.222;2023-11-22T04:08:49;10.25;;;9.75;;
6775;SDS011;3425;51.376;5.222;2023-11-22T04:11:16;9.65;;;9.25;;
6775;SDS011;3425;51.376;5.222;2023-11-22T04:13:44;10.02;;;9.52;;
6775;SDS011;3425;51.376;5.222;2023-11-22T04:16:12;11.05;;;10.52;;
6775;SDS011;3425;51.376;5.222;2023-11-22T04:18:40;10.52;;;10.02;;
6775;SDS011;3425;51.376;5.222;2023-11-22T04:21:07;10.70;;;10.20;;
6775;SDS011;3425;51.376;5.222;2023-11-22T04:23:35;10.40;;;9.90;;
6775;SDS011;3425;51.376;5.222;2023-11-22T04:26:07;11.07;;;10.50;;
6775;SDS011;3425;51.376;5.222;2023-11-22T04:28:34;11.00;;;10.50;;
6775;SDS011;3425;51.376;5.222;2023-11-22T04:31:02;12.45;;;11.43;;
6775;SDS011;3425;51.376;5.222;2023-11-22T04:33:30;12.40;;;11.52;;
6775;SDS011;3425;51.376;5.222;2023-11-22T04:35:57;12.38;;;11.32;;
6775;SDS011;3425;51.376;5.222;2023-11-22T04:38:24;10.98;;;10.48;;
6775;SDS011;3425;51.376;5.222;2023-11-22T04:40:52;11.27;;;10.68;;
6775;SDS011;3425;51.376;5.222;2023-11-22T04:43:19;11.20;;;10.60;;
6775;SDS011;3425;51.376;5.222;2023-11-22T04:45:46;11.32;;;10.73;;
6775;SDS011;3425;51.376;5.222;2023-11-22T04:48:13;11.82;;;11.23;;
6775;SDS011;3425;51.376;5.222;2023-11-22T04:50:41;12.10;;;11.50;;
6775;SDS011;3425;51.376;5.222;2023-11-22T04:53:10;11.90;;;11.30;;
6775;SDS011;3425;51.376;5.222;2023-11-22T04:55:37;12.60;;;11.98;;
6775;SDS011;3425;51.376;5.222;2023-11-22T04:58:04;12.68;;;11.73;;
6775;SDS011;3425;51.376;5.222;2023-11-22T05:00:32;13.05;;;12.35;;
6775;SDS011;3425;51.376;5.222;2023-11-22T05:02:59;12.65;;;11.85;;
6775;SDS011;3425;51.376;5.222;2023-11-22T05:05:26;12.82;;;12.15;;
6775;SDS011;3425;51.376;5.222;2023-11-22T05:07:53;12.85;;;12.15;;
6775;SDS011;3425;51.376;5.222;2023-11-22T05:10:21;12.35;;;11.75;;
6775;SDS011;3425;51.376;5.222;2023-11-22T05:12:48;12.40;;;11.80;;
6775;SDS011;3425;51.376;5.222;2023-11-22T05:15:15;12.15;;;11.55;;
6775;SDS011;3425;51.376;5.222;2023-11-22T05:17:42;12.70;;;12.10;;
6775;SDS011;3425;51.376;5.222;2023-11-22T05:20:09;13.27;;;12.52;;
6775;SDS011;3425;51.376;5.222;2023-11-22T05:22:37;14.57;;;13.68;;
6775;SDS011;3425;51.376;5.222;2023-11-22T05:25:04;12.93;;;12.32;;
6775;SDS011;3425;51.376;5.222;2023-11-22T05:27:33;13.18;;;12.48;;
6775;SDS011;3425;51.376;5.222;2023-11-22T05:30:00;13.35;;;12.65;;
6775;SDS011;3425;51.376;5.222;2023-11-22T05:32:28;13.15;;;12.45;;
6775;SDS011;3425;51.376;5.222;2023-11-22T05:34:57;14.10;;;13.10;;
6775;SDS011;3425;51.376;5.222;2023-11-22T05:37:24;12.60;;;12.00;;
6775;SDS011;3425;51.376;5.222;2023-11-22T05:39:53;12.48;;;11.88;;
6775;SDS011;3425;51.376;5.222;2023-11-22T05:42:20;13.80;;;12.93;;
6775;SDS011;3425;51.376;5.222;2023-11-22T05:44:47;13.27;;;12.57;;
6775;SDS011;3425;51.376;5.222;2023-11-22T05:47:16;13.18;;;12.48;;
6775;SDS011;3425;51.376;5.222;2023-11-22T05:49:45;14.20;;;13.30;;
6775;SDS011;3425;51.376;5.222;2023-11-22T05:52:12;12.88;;;12.27;;
6775;SDS011;3425;51.376;5.222;2023-11-22T05:54:39;12.98;;;12.30;;
6775;SDS011;3425;51.376;5.222;2023-11-22T05:57:07;13.40;;;12.70;;
6775;SDS011;3425;51.376;5.222;2023-11-22T05:59:36;13.88;;;13.15;;
6775;SDS011;3425;51.376;5.222;2023-11-22T06:02:03;13.80;;;13.10;;
6775;SDS011;3425;51.376;5.222;2023-11-22T06:04:30;14.43;;;13.63;;
6775;SDS011;3425;51.376;5.222;2023-11-22T06:06:58;13.40;;;12.70;;
6775;SDS011;3425;51.376;5.222;2023-11-22T06:09:25;13.50;;;12.80;;
6775;SDS011;3425;51.376;5.222;2023-11-22T06:11:54;13.52;;;12.82;;
6775;SDS011;3425;51.376;5.222;2023-11-22T06:14:21;13.43;;;12.73;;
6775;SDS011;3425;51.376;5.222;2023-11-22T06:16:49;13.98;;;13.27;;
6775;SDS011;3425;51.376;5.222;2023-11-22T06:19:16;14.10;;;13.40;;
6775;SDS011;3425;51.376;5.222;2023-11-22T06:21:43;14.15;;;13.45;;
6775;SDS011;3425;51.376;5.222;2023-11-22T06:24:12;14.68;;;13.88;;
6775;SDS011;3425;51.376;5.222;2023-11-22T06:26:42;14.90;;;14.00;;
6775;SDS011;3425;51.376;5.222;2023-11-22T06:29:12;14.23;;;13.52;;
6775;SDS011;3425;51.376;5.222;2023-11-22T06:31:41;14.90;;;14.10;;
6775;SDS011;3425;51.376;5.222;2023-11-22T06:34:08;14.70;;;13.90;;
6775;SDS011;3425;51.376;5.222;2023-11-22T06:36:35;14.85;;;14.05;;
6775;SDS011;3425;51.376;5.222;2023-11-22T06:39:02;14.32;;;13.63;;
6775;SDS011;3425;51.376;5.222;2023-11-22T06:41:31;15.70;;;14.68;;
6775;SDS011;3425;51.376;5.222;2023-11-22T06:43:58;14.65;;;13.85;;
6775;SDS011;3425;51.376;5.222;2023-11-22T06:46:26;15.73;;;14.60;;
6775;SDS011;3425;51.376;5.222;2023-11-22T06:48:53;14.98;;;14.18;;
6775;SDS011;3425;51.376;5.222;2023-11-22T06:51:22;15.48;;;14.57;;
6775;SDS011;3425;51.376;5.222;2023-11-22T06:53:50;15.25;;;14.15;;
6775;SDS011;3425;51.376;5.222;2023-11-22T06:56:22;15.27;;;14.27;;
6775;SDS011;3425;51.376;5.222;2023-11-22T06:58:49;15.73;;;14.57;;
6775;SDS011;3425;51.376;5.222;2023-11-22T07:01:17;14.48;;;13.73;;
6775;SDS011;3425;51.376;5.222;2023-11-22T07:03:44;15.75;;;14.20;;
6775;SDS011;3425;51.376;5.222;2023-11-22T07:06:13;14.95;;;14.10;;
6775;SDS011;3425;51.376;5.222;2023-11-22T07:08:41;14.90;;;14.10;;
6775;SDS011;3425;51.376;5.222;2023-11-22T07:11:08;15.10;;;14.25;;
6775;SDS011;3425;51.376;5.222;2023-11-22T07:13:36;15.32;;;14.50;;
6775;SDS011;3425;51.376;5.222;2023-11-22T07:16:05;15.95;;;15.05;;
6775;SDS011;3425;51.376;5.222;2023-11-22T07:18:33;15.38;;;14.55;;
6775;SDS011;3425;51.376;5.222;2023-11-22T07:21:00;15.60;;;14.77;;
6775;SDS011;3425;51.376;5.222;2023-11-22T07:23:27;15.30;;;14.50;;
6775;SDS011;3425;51.376;5.222;2023-11-22T07:25:55;16.95;;;15.75;;
6775;SDS011;3425;51.376;5.222;2023-11-22T07:28:22;15.80;;;14.90;;
6775;SDS011;3425;51.376;5.222;2023-11-22T07:30:51;15.65;;;14.75;;
6775;SDS011;3425;51.376;5.222;2023-11-22T07:33:19;16.55;;;15.60;;
6775;SDS011;3425;51.376;5.222;2023-11-22T07:35:46;15.40;;;14.57;;
6775;SDS011;3425;51.376;5.222;2023-11-22T07:38:14;16.48;;;15.48;;
6775;SDS011;3425;51.376;5.222;2023-11-22T07:40:43;16.35;;;15.45;;
6775;SDS011;3425;51.376;5.222;2023-11-22T07:43:11;16.60;;;15.60;;
6775;SDS011;3425;51.376;5.222;2023-11-22T07:45:38;15.82;;;14.95;;
6775;SDS011;3425;51.376;5.222;2023-11-22T07:48:05;16.30;;;15.40;;
6775;SDS011;3425;51.376;5.222;2023-11-22T07:50:33;15.90;;;15.00;;
6775;SDS011;3425;51.376;5.222;2023-11-22T07:53:00;15.93;;;15.02;;
6775;SDS011;3425;51.376;5.222;2023-11-22T07:55:31;15.60;;;14.80;;
6775;SDS011;3425;51.376;5.222;2023-11-22T07:58:01;16.38;;;15.38;;
6775;SDS011;3425;51.376;5.222;2023-11-22T08:00:28;15.10;;;14.30;;
6775;SDS011;3425;51.376;5.222;2023-11-22T08:02:56;16.60;;;15.60;;
6775;SDS011;3425;51.376;5.222;2023-11-22T08:05:23;16.63;;;15.63;;
6775;SDS011;3425;51.376;5.222;2023-11-22T08:07:51;16.45;;;15.45;;
6775;SDS011;3425;51.376;5.222;2023-11-22T08:10:19;16.65;;;15.70;;
6775;SDS011;3425;51.376;5.222;2023-11-22T08:12:46;15.75;;;14.90;;
6775;SDS011;3425;51.376;5.222;2023-11-22T08:15:15;17.83;;;16.48;;
6775;SDS011;3425;51.376;5.222;2023-11-22T08:17:46;19.52;;;17.92;;
6775;SDS011;3425;51.376;5.222;2023-11-22T08:20:15;17.00;;;15.98;;
6775;SDS011;3425;51.376;5.222;2023-11-22T08:22:46;16.10;;;15.20;;
6775;SDS011;3425;51.376;5.222;2023-11-22T08:25:15;15.70;;;14.82;;
6775;SDS011;3425;51.376;5.222;2023-11-22T08:27:44;15.93;;;15.02;;
6775;SDS011;3425;51.376;5.222;2023-11-22T08:30:11;17.88;;;16.58;;
6775;SDS011;3425;51.376;5.222;2023-11-22T08:32:42;15.30;;;14.50;;
6775;SDS011;3425;51.376;5.222;2023-11-22T08:35:11;16.77;;;15.50;;
6775;SDS011;3425;51.376;5.222;2023-11-22T08:37:39;16.20;;;15.27;;
6775;SDS011;3425;51.376;5.222;2023-11-22T08:40:08;16.27;;;15.18;;
6775;SDS011;3425;51.376;5.222;2023-11-22T08:42:37;15.55;;;14.60;;
6775;SDS011;3425;51.376;5.222;2023-11-22T08:45:07;15.65;;;14.65;;
6775;SDS011;3425;51.376;5.222;2023-11-22T08:47:34;15.00;;;14.20;;
6775;SDS011;3425;51.376;5.222;2023-11-22T08:50:04;16.08;;;15.18;;
6775;SDS011;3425;51.376;5.222;2023-11-22T08:52:32;17.25;;;15.90;;
6775;SDS011;3425;51.376;5.222;2023-11-22T08:54:59;16.33;;;15.32;;
6775;SDS011;3425;51.376;5.222;2023-11-22T08:57:26;15.68;;;14.82;;
6775;SDS011;3425;51.376;5.222;2023-11-22T08:59:54;16.25;;;14.95;;
6775;SDS011;3425;51.376;5.222;2023-11-22T09:02:21;15.85;;;14.95;;
6775;SDS011;3425;51.376;5.222;2023-11-22T09:04:49;16.17;;;15.25;;
6775;SDS011;3425;51.376;5.222;2023-11-22T09:07:16;17.27;;;15.93;;
6775;SDS011;3425;51.376;5.222;2023-11-22T09:09:44;16.27;;;15.25;;
6775;SDS011;3425;51.376;5.222;2023-11-22T09:12:11;15.52;;;14.73;;
6775;SDS011;3425;51.376;5.222;2023-11-22T09:14:42;15.45;;;14.57;;
6775;SDS011;3425;51.376;5.222;2023-11-22T09:17:09;15.85;;;14.95;;
6775;SDS011;3425;51.376;5.222;2023-11-22T09:19:36;16.70;;;15.73;;
6775;SDS011;3425;51.376;5.222;2023-11-22T09:22:04;17.05;;;16.05;;
6775;SDS011;3425;51.376;5.222;2023-11-22T09:24:35;16.27;;;15.32;;
6775;SDS011;3425;51.376;5.222;2023-11-22T09:27:06;16.52;;;15.52;;
6775;SDS011;3425;51.376;5.222;2023-11-22T09:29:36;16.33;;;15.43;;
6775;SDS011;3425;51.376;5.222;2023-11-22T09:32:04;16.70;;;15.65;;
6775;SDS011;3425;51.376;5.222;2023-11-22T09:34:31;16.00;;;15.00;;
6775;SDS011;3425;51.376;5.222;2023-11-22T09:36:59;15.70;;;14.75;;
6775;SDS011;3425;51.376;5.222;2023-11-22T09:39:26;16.25;;;15.32;;
6775;SDS011;3425;51.376;5.222;2023-11-22T09:41:54;15.70;;;14.80;;
6775;SDS011;3425;51.376;5.222;2023-11-22T09:44:22;15.80;;;14.90;;
6775;SDS011;3425;51.376;5.222;2023-11-22T09:46:49;19.25;;;16.63;;
6775;SDS011;3425;51.376;5.222;2023-11-22T09:49:19;16.92;;;15.95;;
6775;SDS011;3425;51.376;5.222;2023-11-22T09:51:48;16.48;;;15.57;;
6775;SDS011;3425;51.376;5.222;2023-11-22T09:54:16;17.48;;;16.40;;
6775;SDS011;3425;51.376;5.222;2023-11-22T09:56:45;16.42;;;15.43;;
6775;SDS011;3425;51.376;5.222;2023-11-22T09:59:18;16.05;;;15.15;;
6775;SDS011;3425;51.376;5.222;2023-11-22T10:01:46;16.77;;;15.77;;
6775;SDS011;3425;51.376;5.222;2023-11-22T10:04:13;18.15;;;16.95;;
6775;SDS011;3425;51.376;5.222;2023-11-22T10:06:40;18.00;;;16.58;;
6775;SDS011;3425;51.376;5.222;2023-11-22T10:09:12;16.25;;;15.35;;
6775;SDS011;3425;51.376;5.222;2023-11-22T10:11:40;17.25;;;16.25;;
6775;SDS011;3425;51.376;5.222;2023-11-22T10:14:10;17.80;;;16.80;;
6775;SDS011;3425;51.376;5.222;2023-11-22T10:16:37;16.13;;;15.18;;
6775;SDS011;3425;51.376;5.222;2023-11-22T10:19:05;18.45;;;16.98;;
6775;SDS011;3425;51.376;5.222;2023-11-22T10:21:32;17.60;;;16.50;;
6775;SDS011;3425;51.376;5.222;2023-11-22T10:24:00;18.98;;;17.63;;
6775;SDS011;3425;51.376;5.222;2023-11-22T10:26:29;17.83;;;16.83;;
6775;SDS011;3425;51.376;5.222;2023-11-22T10:28:58;17.13;;;15.98;;
6775;SDS011;3425;51.376;5.222;2023-11-22T10:31:26;24.35;;;17.13;;
6775;SDS011;3425;51.376;5.222;2023-11-22T10:33:54;16.92;;;15.90;;
6775;SDS011;3425;51.376;5.222;2023-11-22T10:36:23;18.48;;;16.95;;
6775;SDS011;3425;51.376;5.222;2023-11-22T10:38:51;19.63;;;17.98;;
6775;SDS011;3425;51.376;5.222;2023-11-22T10:41:20;18.58;;;17.27;;
6775;SDS011;3425;51.376;5.222;2023-11-22T10:43:50;16.92;;;15.93;;
6775;SDS011;3425;51.376;5.222;2023-11-22T10:46:20;17.08;;;16.08;;
6775;SDS011;3425;51.376;5.222;2023-11-22T10:48:48;16.90;;;15.95;;
6775;SDS011;3425;51.376;5.222;2023-11-22T10:51:15;17.95;;;16.75;;
6775;SDS011;3425;51.376;5.222;2023-11-22T10:53:48;17.90;;;16.77;;
6775;SDS011;3425;51.376;5.222;2023-11-22T10:56:17;17.42;;;16.42;;
6775;SDS011;3425;51.376;5.222;2023-11-22T10:58:47;18.58;;;16.70;;
6775;SDS011;3425;51.376;5.222;2023-11-22T11:01:15;19.30;;;17.65;;
6775;SDS011;3425;51.376;5.222;2023-11-22T11:03:48;17.63;;;16.52;;
6775;SDS011;3425;51.376;5.222;2023-11-22T11:06:19;18.02;;;16.70;;
6775;SDS011;3425;51.376;5.222;2023-11-22T11:08:49;18.33;;;17.10;;
6775;SDS011;3425;51.376;5.222;2023-11-22T11:11:16;16.75;;;15.75;;
6775;SDS011;3425;51.376;5.222;2023-11-22T11:13:44;18.17;;;17.08;;
6775;SDS011;3425;51.376;5.222;2023-11-22T11:16:12;19.23;;;17.83;;
6775;SDS011;3425;51.376;5.222;2023-11-22T11:18:39;16.52;;;15.52;;
6775;SDS011;3425;51.376;5.222;2023-11-22T11:21:07;17.77;;;16.65;;
6775;SDS011;3425;51.376;5.222;2023-11-22T11:23:34;18.08;;;16.70;;
6775;SDS011;3425;51.376;5.222;2023-11-22T11:26:15;16.38;;;15.48;;
6775;SDS011;3425;51.376;5.222;2023-11-22T11:28:48;20.15;;;18.35;;
6775;SDS011;3425;51.376;5.222;2023-11-22T11:31:20;17.90;;;16.80;;
6775;SDS011;3425;51.376;5.222;2023-11-22T11:38:53;20.27;;;18.25;;
6775;SDS011;3425;51.376;5.222;2023-11-22T11:41:27;16.85;;;15.85;;
6775;SDS011;3425;51.376;5.222;2023-11-22T11:43:58;18.25;;;17.00;;
6775;SDS011;3425;51.376;5.222;2023-11-22T11:46:25;16.52;;;15.52;;
6775;SDS011;3425;51.376;5.222;2023-11-22T11:48:53;16.30;;;15.40;;
6775;SDS011;3425;51.376;5.222;2023-11-22T11:51:30;17.08;;;16.00;;
6775;SDS011;3425;51.376;5.222;2023-11-22T11:53:58;16.10;;;15.20;;
6775;SDS011;3425;51.376;5.222;2023-11-22T11:56:25;17.25;;;16.15;;
6775;SDS011;3425;51.376;5.222;2023-11-22T11:58:53;16.90;;;15.80;;
6775;SDS011;3425;51.376;5.222;2023-11-22T12:01:27;17.00;;;15.80;;
6775;SDS011;3425;51.376;5.222;2023-11-22T12:03:56;16.85;;;15.85;;
6775;SDS011;3425;51.376;5.222;2023-11-22T12:06:23;19.15;;;17.50;;
6775;SDS011;3425;51.376;5.222;2023-11-22T12:08:50;17.65;;;16.55;;
6775;SDS011;3425;51.376;5.222;2023-11-22T12:11:18;18.50;;;17.30;;
6775;SDS011;3425;51.376;5.222;2023-11-22T12:13:46;19.10;;;17.83;;
6775;SDS011;3425;51.376;5.222;2023-11-22T12:16:18;19.63;;;18.10;;
6775;SDS011;3425;51.376;5.222;2023-11-22T12:18:47;17.38;;;16.33;;
6775;SDS011;3425;51.376;5.222;2023-11-22T12:21:17;20.13;;;18.48;;
6775;SDS011;3425;51.376;5.222;2023-11-22T12:23:46;18.45;;;17.08;;
6775;SDS011;3425;51.376;5.222;2023-11-22T12:26:16;19.10;;;17.30;;
6775;SDS011;3425;51.376;5.222;2023-11-22T12:28:48;19.95;;;18.50;;
6775;SDS011;3425;51.376;5.222;2023-11-22T12:31:30;19.15;;;17.33;;
6775;SDS011;3425;51.376;5.222;2023-11-22T12:34:02;20.83;;;18.73;;
6775;SDS011;3425;51.376;5.222;2023-11-22T12:36:30;21.85;;;19.67;;
6775;SDS011;3425;51.376;5.222;2023-11-22T12:38:57;19.52;;;17.75;;
6775;SDS011;3425;51.376;5.222;2023-11-22T12:41:28;17.00;;;16.00;;
6775;SDS011;3425;51.376;5.222;2023-11-22T12:44:01;19.70;;;18.40;;
6775;SDS011;3425;51.376;5.222;2023-11-22T12:46:40;18.27;;;16.95;;
6775;SDS011;3425;51.376;5.222;2023-11-22T12:49:11;18.33;;;17.13;;
6775;SDS011;3425;51.376;5.222;2023-11-22T12:51:38;18.02;;;16.85;;
6775;SDS011;3425;51.376;5.222;2023-11-22T12:54:05;20.42;;;18.70;;
6775;SDS011;3425;51.376;5.222;2023-11-22T12:56:33;23.48;;;17.33;;
6775;SDS011;3425;51.376;5.222;2023-11-22T12:59:00;20.45;;;17.27;;
6775;SDS011;3425;51.376;5.222;2023-11-22T13:01:27;19.02;;;17.75;;
6775;SDS011;3425;51.376;5.222;2023-11-22T13:03:55;19.77;;;18.40;;
6775;SDS011;3425;51.376;5.222;2023-11-22T13:06:22;18.48;;;17.25;;
6775;SDS011;3425;51.376;5.222;2023-11-22T13:08:51;18.15;;;16.95;;
6775;SDS011;3425;51.376;5.222;2023-11-22T13:11:18;25.75;;;19.33;;
6775;SDS011;3425;51.376;5.222;2023-11-22T13:13:45;19.75;;;18.08;;
6775;SDS011;3425;51.376;5.222;2023-11-22T13:16:13;16.55;;;15.55;;
6775;SDS011;3425;51.376;5.222;2023-11-22T13:18:42;17.13;;;16.02;;
6775;SDS011;3425;51.376;5.222;2023-11-22T13:21:09;18.60;;;17.35;;
6775;SDS011;3425;51.376;5.222;2023-11-22T13:23:37;17.13;;;15.93;;
6775;SDS011;3425;51.376;5.222;2023-11-22T13:26:04;19.23;;;17.58;;
6775;SDS011;3425;51.376;5.222;2023-11-22T13:28:32;29.73;;;19.17;;
6775;SDS011;3425;51.376;5.222;2023-11-22T13:30:59;18.38;;;17.02;;
6775;SDS011;3425;51.376;5.222;2023-11-22T13:33:26;17.90;;;16.67;;
6775;SDS011;3425;51.376;5.222;2023-11-22T13:35:54;18.42;;;16.55;;
6775;SDS011;3425;51.376;5.222;2023-11-22T13:38:21;17.45;;;16.35;;
6775;SDS011;3425;51.376;5.222;2023-11-22T13:40:50;18.55;;;16.80;;
6775;SDS011;3425;51.376;5.222;2023-11-22T13:43:17;16.50;;;15.57;;
6775;SDS011;3425;51.376;5.222;2023-11-22T13:45:46;19.42;;;17.75;;
6775;SDS011;3425;51.376;5.222;2023-11-22T13:48:13;17.73;;;16.50;;
6775;SDS011;3425;51.376;5.222;2023-11-22T13:50:41;19.50;;;17.67;;
6775;SDS011;3425;51.376;5.222;2023-11-22T13:53:09;18.75;;;17.27;;
6775;SDS011;3425;51.376;5.222;2023-11-22T13:55:37;16.27;;;15.05;;
6775;SDS011;3425;51.376;5.222;2023-11-22T13:58:05;17.77;;;16.48;;
6775;SDS011;3425;51.376;5.222;2023-11-22T14:00:33;19.15;;;15.73;;
6775;SDS011;3425;51.376;5.222;2023-11-22T14:03:01;12.52;;;11.82;;
6775;SDS011;3425;51.376;5.222;2023-11-22T14:05:34;12.25;;;11.25;;
6775;SDS011;3425;51.376;5.222;2023-11-22T14:08:04;11.32;;;10.48;;
6775;SDS011;3425;51.376;5.222;2023-11-22T14:10:32;11.80;;;11.00;;
6775;SDS011;3425;51.376;5.222;2023-11-22T14:13:00;13.13;;;12.40;;
6775;SDS011;3425;51.376;5.222;2023-11-22T14:15:29;11.38;;;10.73;;
6775;SDS011;3425;51.376;5.222;2023-11-22T14:17:58;10.60;;;10.00;;
6775;SDS011;3425;51.376;5.222;2023-11-22T14:20:25;11.88;;;11.27;;
6775;SDS011;3425;51.376;5.222;2023-11-22T14:22:53;23.95;;;13.70;;
6775;SDS011;3425;51.376;5.222;2023-11-22T14:25:20;14.43;;;13.55;;
6775;SDS011;3425;51.376;5.222;2023-11-22T14:27:47;12.88;;;12.07;;
6775;SDS011;3425;51.376;5.222;2023-11-22T14:30:19;13.00;;;12.27;;
6775;SDS011;3425;51.376;5.222;2023-11-22T14:32:48;12.98;;;12.18;;
6775;SDS011;3425;51.376;5.222;2023-11-22T14:35:17;14.27;;;12.93;;
6775;SDS011;3425;51.376;5.222;2023-11-22T14:37:45;12.43;;;11.65;;
6775;SDS011;3425;51.376;5.222;2023-11-22T14:40:13;11.93;;;11.18;;
6775;SDS011;3425;51.376;5.222;2023-11-22T14:42:42;11.55;;;10.95;;
6775;SDS011;3425;51.376;5.222;2023-11-22T14:45:11;11.77;;;11.07;;
6775;SDS011;3425;51.376;5.222;2023-11-22T14:47:39;10.10;;;9.60;;
6775;SDS011;3425;51.376;5.222;2023-11-22T14:50:07;11.48;;;10.77;;
6775;SDS011;3425;51.376;5.222;2023-11-22T14:52:38;10.63;;;10.02;;
6775;SDS011;3425;51.376;5.222;2023-11-22T14:55:06;12.30;;;11.45;;
6775;SDS011;3425;51.376;5.222;2023-11-22T14:57:37;13.55;;;12.70;;
6775;SDS011;3425;51.376;5.222;2023-11-22T15:00:05;11.00;;;10.40;;
6775;SDS011;3425;51.376;5.222;2023-11-22T15:02:42;12.32;;;11.27;;